Latest Weather Observations for Leonora Airport

IDW60801

Issued at 9:34 am WST Friday 26 May 2017 (issued every 30 minutes, with the page automatically refreshed every 10 minutes)

About weather observations | Map of weather stations | Latest weather observations for WA | Other Formats
Station Details ID: 012241 Name: LEONORA AERO Lat: -28.88 Lon: 121.32 Height: 370.0 m
Data from the previous 72 hours. | See also: Recent months at Leonora Airport
Date/Time
WST
Temp
°C
App
Temp
°C
Dew
Point
°C
Rel
Hum
%
Delta-T
°C
Wind Press
QNH
hPa
Press
MSL
hPa
Rain since
9am
mm
Dir  Spd
km/h
Gust
km/h
Spd
kts
Gust
kts
26/09:30am 17.7 14.5 0.8 32 7.6 NW 7 15 4 8 1020.2 1019.5 0.0
26/09:00am 14.9 13.0 0.7 38 6.2 CALM 0 0 0 0 1020.3 1019.6 0.0
26/08:30am 12.2 10.5 1.8 49 4.5 CALM 0 0 0 0 1020.2 1019.5 0.0
26/08:00am 10.0 8.4 2.6 60 3.2 CALM 0 0 0 0 1020.1 1019.4 0.0
26/07:30am 8.2 6.7 2.9 69 2.3 CALM 0 0 0 0 1019.9 1019.2 0.0
26/07:00am 5.6 3.9 2.1 78 1.4 CALM 0 4 0 2 1019.6 1018.8 0.0
26/06:30am 5.4 3.7 1.9 78 1.4 CALM 0 0 0 0 1019.4 1018.6 0.0
26/06:00am 5.3 3.6 1.8 78 1.4 CALM 0 0 0 0 1019.1 1018.3 0.0
26/05:30am 5.4 3.6 1.5 76 1.6 CALM 0 0 0 0 1018.8 1018.0 0.0
26/05:00am 5.8 4.1 1.9 76 1.6 CALM 0 0 0 0 1018.6 1017.8 0.0
26/04:30am 6.2 4.5 2.1 75 1.7 CALM 0 0 0 0 1018.7 1017.9 0.0
26/04:00am 6.5 4.8 1.8 72 1.9 CALM 0 0 0 0 1018.7 1017.9 0.0
26/03:30am 6.6 4.9 1.7 71 2.0 CALM 0 0 0 0 1018.9 1018.1 0.0
26/03:00am 6.6 4.8 1.5 70 2.1 CALM 0 0 0 0 1018.9 1018.1 0.0
26/02:30am 7.1 5.4 2.0 70 2.1 CALM 0 4 0 2 1019.1 1018.3 0.0
26/02:00am 7.2 5.5 2.1 70 2.1 CALM 0 0 0 0 1019.0 1018.2 0.0
26/01:30am 7.4 5.8 2.3 70 2.2 CALM 0 0 0 0 1019.1 1018.3 0.0
26/01:00am 7.9 6.1 1.3 63 2.7 CALM 0 0 0 0 1019.3 1018.5 0.0
26/12:30am 8.9 7.1 0.9 57 3.3 CALM 0 0 0 0 1019.3 1018.5 0.0
26/12:00am 10.5 8.5 -0.3 47 4.4 CALM 0 6 0 3 1019.4 1018.6 0.0
 
Date/Time
WST
Temp
°C
App
Temp
°C
Dew
Point
°C
Rel
Hum
%
Delta-T
°C
Wind Press
QNH
hPa
Press
MSL
hPa
Rain since
9am
mm
Dir  Spd
km/h
Gust
km/h
Spd
kts
Gust
kts
25/11:30pm 11.8 9.8 -0.4 43 5.1 CALM 0 7 0 4 1019.5 1018.7 0.0
25/11:00pm 11.6 8.4 -0.5 43 5.0 ENE 6 7 3 4 1019.7 1019.0 0.0
25/10:30pm 13.1 9.8 -0.2 40 5.6 NE 7 11 4 6 1019.7 1019.0 0.0
25/10:00pm 13.5 10.2 -0.2 39 5.8 ENE 7 11 4 6 1019.9 1019.2 0.0
25/09:30pm 12.9 9.6 0.0 41 5.5 ENE 7 9 4 5 1019.9 1019.2 0.0
25/09:00pm 12.1 9.6 1.4 48 4.6 E 4 7 2 4 1020.1 1019.4 0.0
25/08:30pm 11.3 9.2 1.8 52 4.1 ESE 2 7 1 4 1020.1 1019.4 0.0
25/08:00pm 11.7 10.0 1.9 51 4.3 CALM 0 0 0 0 1020.1 1019.4 0.0
25/07:30pm 12.8 11.0 1.2 45 5.0 CALM 0 0 0 0 1020.1 1019.4 0.0
25/07:00pm 14.3 12.5 0.9 40 5.8 CALM 0 0 0 0 1019.9 1019.2 0.0
25/06:30pm 15.2 13.2 -0.1 35 6.6 CALM 0 0 0 0 1019.9 1019.2 0.0
25/06:00pm 17.2 13.8 -0.5 30 7.7 S 7 9 4 5 1019.7 1019.0 0.0
25/05:30pm 18.8 14.9 -1.6 25 8.8 SSW 9 9 5 5 1019.4 1018.6 0.0
25/05:00pm 20.8 17.3 -1.7 22 9.8 SSW 7 9 4 5 1019.3 1018.5 0.0
25/04:30pm 23.0 19.5 -2.6 18 11.2 W 6 9 3 5 1019.2 1018.4 0.0
25/04:00pm 23.8 21.2 -1.9 18 11.5 WNW 2 9 1 5 1019.1 1018.3 0.0
25/03:30pm 23.6 21.2 -2.8 17 11.6 CALM 0 6 0 3 1019.2 1018.4 0.0
25/03:00pm 23.6 20.1 -2.8 17 11.6 NNE 6 11 3 6 1019.3 1018.5 0.0
25/02:30pm 23.3 19.9 -2.3 18 11.3 WSW 6 13 3 7 1019.4 1018.6 0.0
25/02:00pm 23.3 19.9 -2.3 18 11.3 WNW 6 11 3 6 1019.5 1018.7 0.0
25/01:30pm 23.3 20.1 -3.1 17 11.5 N 4 11 2 6 1019.9 1019.2 0.0
25/01:00pm 22.7 19.3 -2.1 19 10.9 ENE 6 11 3 6 1020.3 1019.6 0.0
25/12:30pm 22.7 19.4 -1.4 20 10.8 N 6 13 3 7 1020.7 1020.0 0.0
25/12:00pm 21.9 17.6 -2.0 20 10.5 NNE 11 17 6 9 1021.3 1020.5 0.0
25/11:30am 21.4 16.9 -0.6 23 9.9 NNE 13 20 7 11 1021.8 1021.0 0.0
25/11:00am 21.0 17.2 -0.9 23 9.7 NE 9 17 5 9 1022.3 1021.6 0.0
25/10:30am 19.8 16.2 0.3 27 8.8 NNE 9 15 5 8 1022.7 1022.0 0.0
25/10:00am 18.5 16.2 0.6 30 8.0 NNE 2 9 1 5 1022.9 1022.2 0.0
25/09:30am 16.1 14.5 2.2 39 6.3 CALM 0 0 0 0 1023.1 1022.4 0.0
25/09:00am 13.8 11.9 2.7 47 5.0 NNE 2 7 1 4 1023.2 1022.5 0.0
25/08:30am 12.3 10.1 3.5 55 4.0 SSE 4 7 2 4 1023.1 1022.4 0.0
25/08:00am 10.1 7.6 3.6 64 2.9 ESE 6 9 3 5 1023.0 1022.3 0.0
25/07:30am 7.7 6.1 2.4 69 2.3 CALM 0 0 0 0 1022.7 1022.0 0.0
25/07:00am 6.4 3.7 2.7 77 1.6 NE 6 7 3 4 1022.2 1021.5 0.0
25/06:30am 4.1 2.4 1.8 85 0.9 CALM 0 4 0 2 1021.8 1021.0 0.0
25/06:00am 4.1 1.0 1.3 82 1.1 S 7 9 4 5 1021.5 1020.7 0.0
25/05:30am 4.9 3.1 1.4 78 1.4 CALM 0 0 0 0 1021.0 1020.3 0.0
25/05:00am 4.9 2.1 1.9 81 1.2 SSE 6 9 3 5 1020.9 1020.2 0.0
25/04:30am 4.7 2.1 1.2 78 1.4 WSW 4 7 2 4 1020.8 1020.1 0.0
25/04:00am 5.4 3.7 1.7 77 1.5 CALM 0 0 0 0 1020.6 1019.9 0.0
25/03:30am 5.2 3.0 1.1 75 1.6 ESE 2 7 1 4 1020.7 1020.0 0.0
25/03:00am 5.9 2.9 1.1 71 1.9 WNW 6 9 3 5 1021.0 1020.3 0.0
25/02:30am 9.7 6.3 1.8 58 3.4 ENE 9 11 5 6 1020.9 1020.2 0.0
25/02:00am 7.5 5.7 0.9 63 2.7 CALM 0 6 0 3 1021.0 1020.3 0.0
25/01:30am 9.0 6.1 1.7 60 3.1 NE 6 7 3 4 1021.3 1020.5 0.0
25/01:00am 9.9 6.4 1.5 56 3.6 NE 9 11 5 6 1021.5 1020.7 0.0
25/12:30am 9.4 6.4 2.3 61 3.1 ENE 7 7 4 4 1021.6 1020.8 0.0
25/12:00am 8.4 6.6 1.3 61 2.9 CALM 0 0 0 0 1021.7 1020.9 0.0
 
Date/Time
WST
Temp
°C
App
Temp
°C
Dew
Point
°C
Rel
Hum
%
Delta-T
°C
Wind Press
QNH
hPa
Press
MSL
hPa
Rain since
9am
mm
Dir  Spd
km/h
Gust
km/h
Spd
kts
Gust
kts
24/11:30pm 9.2 6.2 1.1 57 3.4 E 6 9 3 5 1021.7 1020.9 0.0
24/11:00pm 10.7 7.6 1.3 52 4.0 ENE 7 9 4 5 1021.9 1021.1 0.0
24/10:30pm 10.7 7.5 1.0 51 4.1 NE 7 9 4 5 1022.0 1021.2 0.0
24/10:00pm 11.3 7.9 1.8 52 4.1 NE 9 13 5 7 1022.0 1021.2 0.0
24/09:30pm 11.1 8.2 1.4 51 4.2 NE 6 9 3 5 1022.0 1021.2 0.0
24/09:00pm 10.9 9.1 1.4 52 4.1 CALM 0 6 0 3 1022.0 1021.2 0.0
24/08:30pm 11.6 10.0 2.4 53 4.1 CALM 0 0 0 0 1021.9 1021.1 0.0
24/08:00pm 12.2 10.4 1.5 48 4.6 CALM 0 0 0 0 1021.8 1021.0 0.0
24/07:30pm 12.1 10.4 2.0 50 4.4 CALM 0 0 0 0 1021.6 1020.8 0.0
24/07:00pm 13.4 11.3 1.4 44 5.2 S 2 6 1 3 1021.5 1020.7 0.0
24/06:30pm 14.7 11.5 0.5 38 6.2 SSW 7 9 4 5 1021.3 1020.5 0.0
24/06:00pm 15.6 13.3 0.6 36 6.6 SW 2 7 1 4 1020.8 1020.1 0.0
24/05:30pm 17.2 13.9 0.4 32 7.5 S 7 9 4 5 1020.3 1019.6 0.0
24/05:00pm 19.4 16.1 -0.1 27 8.7 SSW 7 11 4 6 1020.0 1019.3 0.0
24/04:30pm 21.1 17.8 0.3 25 9.5 WSW 7 9 4 5 1019.8 1019.1 0.0
24/04:00pm 22.0 19.6 -0.1 23 10.1 W 2 7 1 4 1019.8 1019.1 0.0
24/03:30pm 22.0 19.5 -0.7 22 10.3 SSE 2 7 1 4 1019.6 1018.8 0.0
24/03:00pm 21.6 17.9 0.2 24 9.8 SSW 9 15 5 8 1019.6 1018.8 0.0
24/02:30pm 22.6 20.5 -0.8 21 10.6 CALM 0 2 0 1 1019.5 1018.7 0.0
24/02:00pm 21.1 17.5 0.3 25 9.5 SW 9 15 5 8 1019.6 1018.8 0.0
24/01:30pm 21.5 18.3 -0.5 23 9.9 NNW 6 13 3 7 1020.0 1019.3 0.0
24/01:00pm 21.1 18.0 0.3 25 9.5 NE 6 17 3 9 1020.4 1019.7 0.0
24/12:30pm 21.2 18.0 1.0 26 9.4 NNW 7 20 4 11 1020.9 1020.2 0.0
24/12:00pm 20.0 17.0 0.5 27 8.8 WSW 6 13 3 7 1021.3 1020.5 0.0
24/11:30am 19.7 17.1 0.7 28 8.7 WNW 4 11 2 6 1021.8 1021.0 0.0
24/11:00am 19.3 16.1 0.8 29 8.4 N 7 13 4 7 1022.3 1021.6 0.0
24/10:30am 19.1 16.5 1.1 30 8.2 NW 4 9 2 5 1022.7 1022.0 0.0
24/10:00am 18.2 16.5 2.1 34 7.4 CALM 0 0 0 0 1023.1 1022.4 0.0
24/09:30am 16.0 14.3 1.7 38 6.5 CALM 0 0 0 0 1023.3 1022.6 0.0
24/09:00am 14.3 12.7 2.5 45 5.3 CALM 0 0 0 0 1023.4 1022.7 0.0
24/08:30am 12.6 10.0 3.0 52 4.3 ENE 6 7 3 4 1023.3 1022.6 0.0
24/08:00am 10.4 8.9 3.2 61 3.2 CALM 0 0 0 0 1023.3 1022.6 0.0
24/07:30am 7.9 5.3 3.2 72 2.0 ENE 6 9 3 5 1022.9 1022.2 0.0
24/07:00am 4.7 3.1 2.2 84 1.0 CALM 0 0 0 0 1022.7 1022.0 0.0
24/06:30am 4.3 2.7 2.3 87 0.8 CALM 0 0 0 0 1022.6 1021.9 0.0
24/06:00am 4.2 2.5 1.7 84 1.0 CALM 0 0 0 0 1022.4 1021.7 0.0
24/05:30am 4.5 2.8 1.9 83 1.1 CALM 0 0 0 0 1022.1 1021.4 0.0
24/05:00am 4.9 3.3 2.3 83 1.1 CALM 0 0 0 0 1022.0 1021.2 0.0
24/04:30am 5.1 3.5 2.6 84 1.0 CALM 0 0 0 0 1022.1 1021.4 0.0
24/04:00am 5.2 3.6 2.4 82 1.2 CALM 0 0 0 0 1022.0 1021.2 0.0
24/03:30am 5.7 4.2 3.0 83 1.1 CALM 0 0 0 0 1022.1 1021.4 0.0
24/03:00am 5.7 4.2 3.0 83 1.1 CALM 0 0 0 0 1022.2 1021.5 0.0
24/02:30am 6.2 4.8 3.5 83 1.2 CALM 0 0 0 0 1022.2 1021.5 0.0
24/02:00am 6.5 4.0 3.7 82 1.2 SSW 6 9 3 5 1022.4 1021.7 0.0
24/01:30am 6.7 5.3 3.3 79 1.5 CALM 0 0 0 0 1022.4 1021.7 0.0
24/01:00am 7.5 6.2 3.9 78 1.6 CALM 0 0 0 0 1022.5 1021.8 0.0
24/12:30am 7.4 6.0 3.5 76 1.7 CALM 0 0 0 0 1022.5 1021.8 0.0
24/12:00am 8.3 6.6 1.9 64 2.7 CALM 0 0 0 0 1022.4 1021.7 0.0
 
Date/Time
WST
Temp
°C
App
Temp
°C
Dew
Point
°C
Rel
Hum
%
Delta-T
°C
Wind Press
QNH
hPa
Press
MSL
hPa
Rain since
9am
mm
Dir  Spd
km/h
Gust
km/h
Spd
kts
Gust
kts
23/11:30pm 10.2 8.3 2.6 59 3.3 NE 2 6 1 3 1022.6 1021.9 0.0
23/11:00pm 10.8 7.9 2.6 57 3.6 NE 7 7 4 4 1022.8 1022.1 0.0
23/10:30pm 11.1 8.2 2.7 56 3.7 NE 7 9 4 5 1023.0 1022.3 0.0
23/10:00pm 11.6 8.9 2.9 55 3.9 ENE 6 7 3 4 1023.0 1022.3 0.0
23/09:30pm 12.3 9.8 4.0 57 3.8 ENE 6 9 3 5 1023.1 1022.4 0.0
23/09:00pm 10.8 8.0 2.9 58 3.5 SSE 7 9 4 5 1023.0 1022.3 0.0
23/08:30pm 11.4 8.6 3.4 58 3.6 ENE 7 7 4 4 1022.9 1022.2 0.0
23/08:00pm 11.9 9.3 3.2 55 3.9 ENE 6 7 3 4 1022.8 1022.1 0.0
23/07:30pm 12.9 11.3 2.5 49 4.6 CALM 0 6 0 3 1022.7 1022.0 0.0
23/07:00pm 14.2 11.3 2.5 45 5.3 ENE 7 9 4 5 1022.5 1021.8 0.0
23/06:30pm 14.7 12.4 2.9 45 5.4 ENE 4 6 2 3 1022.4 1021.7 0.0
23/06:00pm 15.0 12.7 2.9 44 5.5 E 4 7 2 4 1022.0 1021.2 0.0
23/05:30pm 16.5 13.8 2.5 39 6.4 ENE 6 9 3 5 1021.7 1020.9 0.0
23/05:00pm 17.7 14.7 1.7 34 7.3 E 7 9 4 5 1021.5 1020.7 0.0
23/04:30pm 18.6 16.5 1.6 32 7.8 SE 2 9 1 5 1021.3 1020.5 0.0
23/04:00pm 18.6 15.5 1.2 31 7.9 SE 7 13 4 7 1021.3 1020.5 0.0
23/03:30pm 19.1 16.7 2.0 32 8.0 SSW 4 9 2 5 1021.2 1020.4 0.0
23/03:00pm 19.2 16.3 1.7 31 8.1 ESE 6 11 3 6 1021.3 1020.5 0.0
23/02:30pm 19.0 15.9 1.5 31 8.1 NE 7 13 4 7 1021.4 1020.6 0.0
23/02:00pm 18.3 15.5 1.8 33 7.6 SSW 6 11 3 6 1021.6 1020.8 0.0
23/01:30pm 18.0 15.2 1.9 34 7.4 SSE 6 17 3 9 1021.8 1021.0 0.0
23/01:00pm 17.8 15.4 2.2 35 7.2 SSE 4 9 2 5 1022.1 1021.4 0.0
23/12:30pm 17.6 14.9 2.4 36 7.0 SW 6 13 3 7 1022.6 1021.9 0.0
23/12:00pm 16.9 13.5 2.1 37 6.8 SSE 9 15 5 8 1023.0 1022.3 0.0
23/11:30am 16.8 13.6 2.8 39 6.5 SSW 9 15 5 8 1023.6 1022.9 0.0
23/11:00am 16.2 12.9 2.2 39 6.4 SSW 9 13 5 7 1024.2 1023.4 0.0
23/10:30am 15.7 12.8 2.5 41 6.0 SSW 7 11 4 6 1024.6 1023.9 0.0
23/10:00am 15.5 13.5 2.3 41 6.0 ESE 2 6 1 3 1024.8 1024.1 0.0

Other Formats:

Comma delimited format used in spreadsheet applications
http://www.bom.gov.au/fwo/IDW60801/IDW60801.94450.axf

JavaScript Object Notation format (JSON) in row-major order
http://www.bom.gov.au/fwo/IDW60801/IDW60801.94450.json